Time;durP1;ratioP1;P1;durP2;ratioP2;P2;SDS_P1;SDS_P2;PMS_P1;PMS_P2;Temp;Humidity;BMP_temperature;BMP_pressure;BME280_temperature;BME280_humidity;BME280_pressure;Samples;Min_cycle;Max_cycle;Signal;HPM_P1;HPM_P2
2023/07/28 00:01:14;;;;;;;2.70;1.70;;;17.50;99.90;;;18.23;100.00;97316.53;5021499;28;20470;-85
2023/07/28 00:03:46;;;;;;;7.83;2.10;;;17.50;99.90;;;18.24;100.00;97312.06;5019966;28;21782;-86
2023/07/28 00:06:17;;;;;;;5.03;2.03;;;17.50;99.90;;;18.23;100.00;97303.31;5019319;28;20510;-85
2023/07/28 00:08:46;;;;;;;3.30;1.60;;;17.50;99.90;;;18.24;100.00;97299.63;5019360;28;20489;-85
2023/07/28 00:11:17;;;;;;;4.33;1.70;;;17.50;99.90;;;18.23;100.00;97297.22;5020473;28;20470;-85
2023/07/28 00:13:48;;;;;;;5.60;2.20;;;17.50;99.90;;;18.19;100.00;97299.56;5021302;28;20968;-85
2023/07/28 00:16:17;;;;;;;5.33;2.00;;;17.50;99.90;;;18.20;100.00;97293.25;5016368;28;20524;-85
2023/07/28 00:18:48;;;;;;;5.67;1.90;;;17.50;99.90;;;18.18;100.00;97290.06;5018956;28;20467;-85
2023/07/28 00:21:19;;;;;;;2.20;1.70;;;17.50;99.90;;;18.18;100.00;97295.34;5017399;28;20820;-85
2023/07/28 00:23:49;;;;;;;2.23;1.30;;;17.50;99.90;;;18.16;100.00;97297.44;5019566;28;21015;-86
2023/07/28 00:26:18;;;;;;;2.27;1.80;;;17.50;99.90;;;18.18;100.00;97290.06;5019659;28;20498;-85
2023/07/28 00:28:48;;;;;;;4.57;1.43;;;17.50;99.90;;;18.18;100.00;97282.13;5018079;28;20941;-86
2023/07/28 00:31:18;;;;;;;2.87;1.80;;;17.50;99.90;;;18.19;100.00;97278.41;5019172;28;20458;-86
2023/07/28 00:33:48;;;;;;;4.30;1.63;;;17.50;99.90;;;18.20;100.00;97287.13;5022526;28;20465;-85
2023/07/28 00:36:20;;;;;;;5.33;1.40;;;17.40;99.90;;;18.17;100.00;97279.72;5022933;28;21031;-85
2023/07/28 00:38:50;;;;;;;6.03;1.50;;;17.50;99.90;;;18.17;100.00;97282.34;5021447;28;20497;-85
2023/07/28 00:41:21;;;;;;;3.10;1.80;;;17.40;99.90;;;18.15;100.00;97279.19;5020987;28;20484;-86
2023/07/28 00:43:51;;;;;;;11.63;1.70;;;17.40;99.90;;;18.11;100.00;97276.25;5019217;28;20466;-85
2023/07/28 00:46:22;;;;;;;3.30;1.60;;;17.40;99.90;;;18.12;100.00;97280.47;5020539;28;20874;-85
2023/07/28 00:48:52;;;;;;;2.53;1.70;;;17.40;99.90;;;18.12;100.00;97269.88;5018990;28;20482;-85
2023/07/28 00:51:25;;;;;;;2.70;1.80;;;17.40;99.90;;;18.14;100.00;97277.56;5018491;28;21198;-85
2023/07/28 00:53:56;;;;;;;3.17;1.20;;;17.30;99.90;;;18.13;100.00;97282.06;5020447;28;20457;-86
2023/07/28 00:56:28;;;;;;;3.10;1.40;;;17.40;99.90;;;18.12;100.00;97284.97;5019426;28;20466;-85
2023/07/28 00:58:58;;;;;;;1.87;1.20;;;17.40;99.90;;;18.12;100.00;97272.53;5018764;28;20471;-86
2023/07/28 01:01:29;;;;;;;2.17;1.33;;;17.40;99.90;;;18.12;100.00;97282.34;5018844;28;20459;-85
2023/07/28 01:04:00;;;;;;;2.97;1.30;;;17.40;99.90;;;18.11;100.00;97284.19;5023451;28;20490;-86
2023/07/28 01:06:49;;;;;;;2.93;1.10;;;17.40;99.90;;;18.11;100.00;97289.47;5019366;28;20490;-85
2023/07/28 01:09:35;;;;;;;2.43;1.20;;;17.40;99.90;;;18.13;100.00;97284.72;5022372;28;20466;-86
2023/07/28 01:12:10;;;;;;;1.90;1.20;;;17.40;99.90;;;18.11;100.00;97278.88;5020458;28;20462;-86
2023/07/28 01:14:40;;;;;;;1.40;1.20;;;17.40;99.90;;;18.11;100.00;97292.13;5021352;28;20466;-85
2023/07/28 01:17:11;;;;;;;2.90;0.93;;;17.40;99.90;;;18.10;100.00;97287.88;5023298;28;20965;-85
2023/07/28 01:19:41;;;;;;;2.10;1.30;;;17.40;99.90;;;18.09;100.00;97275.69;5020776;28;20541;-85
2023/07/28 01:22:49;;;;;;;2.23;1.30;;;17.40;99.90;;;18.12;100.00;97285.75;5019267;28;20903;-86
2023/07/28 01:25:38;;;;;;;1.40;1.10;;;17.40;99.90;;;18.12;100.00;97275.16;5018469;28;20534;-85
2023/07/28 01:28:09;;;;;;;1.20;1.10;;;17.40;99.90;;;18.10;100.00;97282.56;5021016;28;21166;-85
2023/07/28 01:30:40;;;;;;;1.60;1.20;;;17.40;99.90;;;18.08;100.00;97282.03;5020171;28;20471;-85
2023/07/28 01:33:11;;;;;;;1.40;1.00;;;17.40;99.90;;;18.04;100.00;97273.81;5019621;28;20469;-86
2023/07/28 01:35:42;;;;;;;2.57;1.60;;;17.40;99.90;;;18.04;100.00;97273.00;5021603;28;21231;-85
2023/07/28 01:38:13;;;;;;;1.60;1.20;;;17.40;99.90;;;18.03;100.00;97282.00;5022034;28;20458;-86
2023/07/28 01:40:44;;;;;;;6.33;1.10;;;17.40;99.90;;;18.05;100.00;97285.16;5018954;28;21231;-86
2023/07/28 01:43:16;;;;;;;9.57;1.47;;;17.40;99.90;;;18.06;100.00;97286.78;5023152;28;20463;-86
2023/07/28 01:45:46;;;;;;;3.47;1.40;;;17.30;99.90;;;18.03;100.00;97280.16;5020407;28;21034;-85
2023/07/28 01:48:16;;;;;;;5.67;1.20;;;17.40;99.90;;;18.04;100.00;97273.00;5023170;28;20988;-86
2023/07/28 01:50:46;;;;;;;1.40;1.30;;;17.30;99.90;;;18.04;100.00;97286.25;5022458;28;21231;-86
2023/07/28 01:53:16;;;;;;;1.80;1.20;;;17.30;99.90;;;18.05;100.00;97279.88;5023004;28;20461;-86
2023/07/28 01:55:47;;;;;;;2.40;1.40;;;17.30;99.90;;;18.02;100.00;97281.19;5022032;28;20545;-86
2023/07/28 01:58:19;;;;;;;2.40;1.20;;;17.30;99.90;;;18.04;100.00;97279.09;5023615;28;20466;-85
2023/07/28 02:00:49;;;;;;;1.40;1.20;;;17.30;99.90;;;18.06;100.00;97281.47;5021308;28;20457;-86
2023/07/28 02:03:19;;;;;;;2.73;1.30;;;17.30;99.90;;;18.04;100.00;97278.31;5021528;28;20486;-86
2023/07/28 02:05:49;;;;;;;4.80;1.10;;;17.30;99.90;;;18.02;100.00;97277.75;5025956;28;20489;-86
2023/07/28 02:08:20;;;;;;;2.53;1.30;;;17.30;99.90;;;18.02;100.00;97289.13;5022075;28;20494;-85
2023/07/28 02:10:50;;;;;;;2.80;1.20;;;17.30;99.90;;;18.03;100.00;97287.28;5023131;28;20544;-86
2023/07/28 02:13:22;;;;;;;1.83;1.17;;;17.30;99.90;;;18.03;100.00;97284.63;5024442;28;20485;-85
2023/07/28 02:15:51;;;;;;;10.93;1.20;;;17.30;99.90;;;18.04;100.00;97276.47;5024255;28;20463;-85
2023/07/28 02:18:21;;;;;;;2.50;1.00;;;17.30;99.90;;;18.02;100.00;97283.84;5022733;28;20458;-86
2023/07/28 02:20:52;;;;;;;2.67;1.37;;;17.30;99.90;;;18.03;100.00;97279.34;5022864;28;20471;-85
2023/07/28 02:23:23;;;;;;;14.83;1.43;;;17.30;99.90;;;18.05;100.00;97290.47;5025023;28;20493;-85
2023/07/28 02:25:53;;;;;;;2.27;1.40;;;17.30;99.90;;;18.05;100.00;97288.63;5024613;28;21019;-85
2023/07/28 02:28:25;;;;;;;3.80;1.10;;;17.30;99.90;;;18.05;100.00;97285.16;5024611;28;21399;-86
2023/07/28 02:30:55;;;;;;;1.57;1.30;;;17.30;99.90;;;18.06;100.00;97279.63;5024927;28;20516;-88
2023/07/28 02:33:26;;;;;;;19.43;12.17;;;17.30;99.90;;;18.07;100.00;97280.44;5036936;28;20459;-85
2023/07/28 02:35:56;;;;;;;5.43;2.23;;;17.30;99.90;;;18.06;100.00;97290.22;5024842;28;20465;-86
2023/07/28 02:38:27;;;;;;;4.83;1.27;;;17.30;99.90;;;18.05;100.00;97285.97;5025589;28;20466;-85
2023/07/28 02:40:57;;;;;;;1.10;1.00;;;17.30;99.90;;;18.04;100.00;97280.94;5024776;28;20466;-86
2023/07/28 02:43:28;;;;;;;5.83;1.30;;;17.30;99.90;;;18.04;100.00;97275.66;5024974;28;20521;-86
2023/07/28 02:45:59;;;;;;;1.30;1.10;;;17.30;99.90;;;18.03;100.00;97277.50;5024253;28;20462;-85
2023/07/28 02:48:30;;;;;;;3.10;1.60;;;17.30;99.90;;;18.02;100.00;97283.03;5023724;28;20587;-91
2023/07/28 02:51:02;;;;;;;1.93;1.73;;;17.30;99.90;;;17.98;100.00;97279.28;5024987;28;20466;-86
2023/07/28 02:53:33;;;;;;;5.60;1.20;;;17.40;99.90;;;17.99;100.00;97281.69;5024334;28;20466;-86
2023/07/28 02:56:02;;;;;;;1.77;1.07;;;17.40;99.90;;;18.01;100.00;97278.81;5026692;28;20923;-86
2023/07/28 02:58:34;;;;;;;1.33;1.10;;;17.30;99.90;;;18.03;100.00;97297.88;5024608;28;20548;-86
2023/07/28 03:01:05;;;;;;;1.40;1.20;;;17.30;99.90;;;18.03;100.00;97287.28;5025460;28;20494;-86
2023/07/28 03:03:37;;;;;;;1.13;1.03;;;17.30;99.90;;;18.04;100.00;97289.69;5023170;28;21117;-86
2023/07/28 03:06:07;;;;;;;1.30;1.00;;;17.30;99.90;;;18.03;100.00;97280.16;5024566;28;20548;-87
2023/07/28 03:08:36;;;;;;;1.10;1.00;;;17.30;99.90;;;18.04;100.00;97284.41;5024934;28;20470;-86
2023/07/28 03:11:07;;;;;;;1.40;1.20;;;17.30;99.90;;;18.06;100.00;97292.06;5024271;28;20890;-87
2023/07/28 03:13:38;;;;;;;1.20;1.00;;;17.30;99.90;;;18.01;100.00;97292.81;5022395;28;20496;-85
2023/07/28 03:16:08;;;;;;;1.10;1.00;;;17.30;99.90;;;18.02;100.00;97290.97;5024062;28;20982;-81
2023/07/28 03:18:40;;;;;;;10.80;2.63;;;17.40;99.90;;;18.04;100.00;97287.03;5016985;28;20499;-81
2023/07/28 03:21:11;;;;;;;2.60;1.93;;;17.30;99.90;;;18.07;100.00;97283.09;5019807;28;20466;-82
2023/07/28 03:23:41;;;;;;;1.30;1.10;;;17.30;99.90;;;18.08;100.00;97284.69;5018672;28;20466;-81
2023/07/28 03:26:11;;;;;;;1.10;1.00;;;17.30;99.90;;;18.08;100.00;97285.47;5019758;28;20474;-81
2023/07/28 03:28:42;;;;;;;1.60;0.90;;;17.30;99.90;;;18.08;100.00;97290.75;5018632;28;20490;-81
2023/07/28 03:31:14;;;;;;;1.10;1.00;;;17.30;99.90;;;18.06;100.00;97286.78;5017743;28;20488;-81
2023/07/28 03:33:43;;;;;;;1.20;1.00;;;17.40;99.90;;;18.07;100.00;97294.47;5020862;28;20896;-81
2023/07/28 03:36:14;;;;;;;15.27;1.00;;;17.40;99.90;;;18.08;100.00;97282.03;5019744;28;20970;-81
2023/07/28 03:38:43;;;;;;;1.20;0.90;;;17.30;99.90;;;18.06;100.00;97281.47;5020323;28;20463;-81
2023/07/28 03:41:12;;;;;;;5.93;1.17;;;17.40;99.90;;;18.07;100.00;97291.03;5020527;28;20487;-87
2023/07/28 03:43:44;;;;;;;1.97;1.70;;;17.30;99.90;;;18.08;100.00;97301.34;5018936;28;20916;-81
2023/07/28 03:46:14;;;;;;;1.73;1.60;;;17.30;99.90;;;18.09;100.00;97292.38;5020829;28;21253;-81
2023/07/28 03:48:45;;;;;;;1.67;1.33;;;17.30;99.90;;;18.09;100.00;97308.25;5022960;28;20485;-81
2023/07/28 03:51:15;;;;;;;5.53;1.20;;;17.30;99.90;;;18.12;100.00;97301.63;5022088;28;20508;-81
2023/07/28 03:53:45;;;;;;;1.13;1.00;;;17.30;99.90;;;18.13;100.00;97313.03;5022170;28;20540;-81
2023/07/28 03:56:15;;;;;;;1.20;1.10;;;17.30;99.90;;;18.11;100.00;97313.28;5024383;28;20999;-81
2023/07/28 03:58:48;;;;;;;3.90;0.97;;;17.30;99.90;;;18.12;100.00;97316.75;5022206;28;20497;-81
2023/07/28 04:01:18;;;;;;;1.10;1.00;;;17.30;99.90;;;18.14;100.00;97306.69;5021447;28;20523;-81
2023/07/28 04:03:48;;;;;;;1.30;1.13;;;17.30;99.90;;;18.12;100.00;97301.63;5020777;28;20485;-81
2023/07/28 04:06:17;;;;;;;1.10;0.90;;;17.30;99.90;;;18.13;100.00;97307.72;5021011;28;20473;-81
2023/07/28 04:08:52;;;;;;;2.90;1.30;;;17.40;99.90;;;18.13;100.00;97313.81;5019630;28;20498;-81
2023/07/28 04:11:45;;;;;;;3.60;1.80;;;17.40;99.90;;;18.13;100.00;97316.47;5013615;28;20477;-81
2023/07/28 04:14:16;;;;;;;9.10;4.23;;;17.30;99.90;;;18.14;100.00;97326.00;5020654;28;20474;-81
2023/07/28 04:16:47;;;;;;;6.00;1.43;;;17.30;99.90;;;18.14;100.00;97330.50;5019820;28;20493;-81
2023/07/28 04:19:17;;;;;;;5.80;1.23;;;17.30;99.90;;;18.13;100.00;97324.41;5017504;28;20465;-83
2023/07/28 04:21:48;;;;;;;2.30;1.20;;;17.30;99.90;;;18.13;100.00;97327.06;5019065;28;20470;-81
2023/07/28 04:24:17;;;;;;;1.30;1.20;;;17.30;99.90;;;18.13;100.00;97319.13;5015913;28;20474;-81
2023/07/28 04:26:49;;;;;;;5.50;1.80;;;17.30;99.90;;;18.15;100.00;97326.81;5020338;28;20477;-82
2023/07/28 04:29:21;;;;;;;2.13;1.10;;;17.40;99.90;;;18.16;100.00;97329.19;5018222;28;20459;-82
2023/07/28 04:31:51;;;;;;;1.30;1.20;;;17.40;99.90;;;18.17;100.00;97335.28;5016487;28;20822;-81
2023/07/28 04:34:21;;;;;;;11.43;6.30;;;17.40;99.90;;;18.17;100.00;97336.09;5016918;28;20463;-81
2023/07/28 04:36:52;;;;;;;3.40;2.40;;;17.40;99.90;;;18.16;100.00;97341.63;5020799;28;20461;-83
2023/07/28 04:39:24;;;;;;;1.30;1.20;;;17.40;99.90;;;18.15;100.00;97342.69;5021391;28;20470;-83
2023/07/28 04:41:53;;;;;;;1.30;1.03;;;17.40;99.90;;;18.17;100.00;97344.03;5023410;28;20523;-84
2023/07/28 04:44:25;;;;;;;3.10;1.20;;;17.40;99.90;;;18.16;100.00;97350.38;5023618;28;20491;-83
2023/07/28 04:46:55;;;;;;;3.40;1.27;;;17.40;99.90;;;18.18;100.00;97348.28;5023017;28;20471;-83
2023/07/28 04:49:25;;;;;;;4.70;1.00;;;17.40;99.90;;;18.18;100.00;97347.47;5023793;28;20450;-83
2023/07/28 04:51:56;;;;;;;1.60;1.20;;;17.40;99.90;;;18.19;100.00;97352.50;5022695;28;20480;-82
2023/07/28 04:54:27;;;;;;;2.50;1.53;;;17.40;99.90;;;18.22;100.00;97354.69;5022931;28;20454;-83
2023/07/28 04:56:58;;;;;;;1.00;0.87;;;17.40;99.90;;;18.21;100.00;97353.06;5023348;28;21011;-83
2023/07/28 04:59:30;;;;;;;2.00;1.20;;;17.50;99.90;;;18.21;100.00;97352.28;5022759;28;20465;-84
2023/07/28 05:02:00;;;;;;;4.50;1.00;;;17.50;99.90;;;18.22;100.00;97353.88;5022861;28;21485;-83
2023/07/28 05:04:31;;;;;;;1.10;1.00;;;17.50;99.90;;;18.23;100.00;97347.50;5023895;28;20446;-82
2023/07/28 05:07:01;;;;;;;1.50;1.20;;;17.50;99.90;;;18.23;100.00;97345.66;5021786;28;20462;-83
2023/07/28 05:09:32;;;;;;;2.00;1.07;;;17.50;99.90;;;18.26;100.00;97352.28;5022385;28;20960;-83
2023/07/28 05:12:02;;;;;;;2.80;1.10;;;17.50;99.90;;;18.26;100.00;97353.09;5020971;28;20470;-83
2023/07/28 05:14:35;;;;;;;1.33;0.83;;;17.50;99.90;;;18.29;100.00;97355.22;5020882;28;20883;-83
2023/07/28 05:17:06;;;;;;;1.20;1.03;;;17.40;99.90;;;18.30;100.00;97356.03;5022993;28;20557;-83
2023/07/28 05:19:36;;;;;;;1.10;0.87;;;17.50;99.90;;;18.31;100.00;97360.28;5022413;28;20470;-83
2023/07/28 05:22:07;;;;;;;5.20;1.00;;;17.50;99.90;;;18.31;100.00;97358.44;5021653;28;20504;-83
2023/07/28 05:24:37;;;;;;;1.73;1.00;;;17.50;99.90;;;18.33;100.00;97361.63;5024120;28;20885;-83
2023/07/28 05:27:08;;;;;;;1.20;1.00;;;17.50;99.90;;;18.33;100.00;97358.16;5022609;28;21091;-83
2023/07/28 05:29:39;;;;;;;4.17;1.57;;;17.60;99.90;;;18.34;100.00;97357.13;5022149;28;20466;-83
2023/07/28 05:32:11;;;;;;;1.43;0.90;;;17.60;99.90;;;18.35;100.00;97356.88;5026648;28;20494;-82
2023/07/28 05:34:44;;;;;;;7.30;1.10;;;17.60;99.90;;;18.36;100.00;97358.47;5026361;28;20825;-83
2023/07/28 05:37:13;;;;;;;1.23;1.13;;;17.60;99.90;;;18.38;100.00;97360.88;5027123;28;20476;-83
2023/07/28 05:39:44;;;;;;;1.93;1.10;;;17.60;99.90;;;18.40;100.00;97364.06;5026399;28;20989;-83
2023/07/28 05:42:14;;;;;;;1.30;1.00;;;17.60;99.90;;;18.38;100.00;97366.97;5026254;28;20466;-83
2023/07/28 05:44:46;;;;;;;2.40;1.10;;;17.60;99.90;;;18.40;100.00;97366.69;5029494;28;21107;-83
2023/07/28 05:47:17;;;;;;;2.60;1.00;;;17.70;99.90;;;18.43;100.00;97371.50;5025990;28;20462;-83
2023/07/28 05:49:47;;;;;;;1.20;1.00;;;17.70;99.90;;;18.44;100.00;97371.25;5026214;28;20469;-83
2023/07/28 05:52:17;;;;;;;1.30;1.00;;;17.70;99.90;;;18.46;100.00;97376.31;5028357;28;20493;-83
2023/07/28 05:54:46;;;;;;;2.33;1.10;;;17.70;99.90;;;18.48;100.00;97375.00;5028943;28;20477;-83
2023/07/28 05:57:16;;;;;;;0.90;0.80;;;17.70;99.90;;;18.50;100.00;97378.19;5030050;28;20541;-84
2023/07/28 05:59:46;;;;;;;1.30;0.97;;;17.70;99.90;;;18.53;100.00;97368.97;5029713;28;20466;-83
2023/07/28 06:02:16;;;;;;;3.47;1.20;;;17.70;99.90;;;18.54;100.00;97379.28;5026911;28;20481;-83
2023/07/28 06:04:47;;;;;;;1.70;1.40;;;17.80;99.90;;;18.54;100.00;97379.28;5029227;28;20465;-83
2023/07/28 06:07:38;;;;;;;0.90;0.80;;;17.90;99.90;;;18.57;100.00;97383.28;5029881;28;20463;-82
2023/07/28 06:10:10;;;;;;;1.20;0.90;;;17.90;99.90;;;18.60;100.00;97383.56;5025681;28;20606;-83
2023/07/28 06:12:40;;;;;;;3.03;1.30;;;17.90;99.90;;;18.64;100.00;97383.09;5025533;28;20493;-83
2023/07/28 06:15:11;;;;;;;1.00;0.90;;;17.90;99.90;;;18.67;100.00;97380.72;5026189;28;20485;-83
2023/07/28 06:17:42;;;;;;;1.30;1.10;;;18.00;99.90;;;18.68;100.00;97377.00;5025663;28;20537;-82
2023/07/28 06:20:14;;;;;;;1.67;1.07;;;18.00;99.90;;;18.73;100.00;97386.84;5023974;28;20508;-83
2023/07/28 06:22:45;;;;;;;1.10;1.00;;;18.00;99.90;;;18.76;100.00;97375.72;5026957;28;20466;-83
2023/07/28 06:25:16;;;;;;;1.73;1.00;;;18.10;99.90;;;18.78;100.00;97378.94;5027806;28;20541;-83
2023/07/28 06:28:18;;;;;;;2.17;0.97;;;18.10;99.90;;;18.81;100.00;97386.38;5027176;28;20536;-84
2023/07/28 06:30:56;;;;;;;1.33;1.23;;;18.10;99.90;;;18.83;100.00;97392.22;5020711;28;20842;-82
2023/07/28 06:33:26;;;;;;;1.10;1.00;;;18.10;99.90;;;18.84;100.00;97394.63;5024844;28;20446;-83
2023/07/28 06:35:57;;;;;;;1.27;1.00;;;18.20;99.90;;;18.86;100.00;97397.00;5028146;28;20451;-83
2023/07/28 06:38:27;;;;;;;1.30;1.10;;;18.20;99.90;;;18.89;100.00;97399.13;5026338;28;20469;-83
2023/07/28 06:40:57;;;;;;;1.40;0.90;;;18.20;99.90;;;18.93;100.00;97397.56;5025661;28;20968;-83
2023/07/28 06:43:27;;;;;;;4.03;1.00;;;18.20;99.90;;;18.90;100.00;97403.38;5025314;28;20472;-83
2023/07/28 06:45:59;;;;;;;1.30;1.00;;;18.30;99.90;;;18.92;100.00;97403.91;5025235;28;20497;-83
2023/07/28 06:48:29;;;;;;;2.00;1.00;;;18.30;99.90;;;18.96;100.00;97407.66;5026367;28;20490;-83
2023/07/28 06:50:59;;;;;;;1.10;1.00;;;18.30;99.90;;;18.99;100.00;97418.53;5026490;28;20461;-83
2023/07/28 06:53:28;;;;;;;2.93;1.10;;;18.40;99.90;;;19.00;100.00;97412.19;5026093;28;20509;-83
2023/07/28 06:55:58;;;;;;;1.50;0.83;;;18.40;99.90;;;19.02;100.00;97417.25;5026430;28;20464;-83
2023/07/28 06:58:27;;;;;;;1.30;1.00;;;18.40;99.90;;;19.06;100.00;97415.66;5026490;28;20533;-83
2023/07/28 07:00:59;;;;;;;0.93;0.83;;;18.40;99.90;;;19.10;100.00;97424.69;5025629;28;20470;-83
2023/07/28 07:03:30;;;;;;;1.00;0.80;;;18.40;99.90;;;19.11;100.00;97415.69;5025486;28;20961;-83
2023/07/28 07:05:59;;;;;;;1.20;1.10;;;18.50;99.90;;;19.12;100.00;97414.66;5027252;28;20473;-83
2023/07/28 07:08:29;;;;;;;3.43;1.10;;;18.50;99.90;;;19.15;100.00;97427.38;5027955;28;20486;-83
2023/07/28 07:10:59;;;;;;;1.83;1.20;;;18.50;99.90;;;19.17;100.00;97425.28;5024601;28;20945;-83
2023/07/28 07:13:28;;;;;;;1.20;1.10;;;18.50;99.90;;;19.19;100.00;97419.72;5026933;28;20477;-83
2023/07/28 07:16:00;;;;;;;1.77;1.10;;;18.60;99.90;;;19.23;100.00;97420.81;5026863;28;20473;-83
2023/07/28 07:18:30;;;;;;;1.10;0.90;;;18.60;99.90;;;19.25;100.00;97432.75;5024895;28;20473;-82
2023/07/28 07:21:03;;;;;;;1.30;1.20;;;18.60;99.90;;;19.27;100.00;97429.81;5024144;28;20467;-83
2023/07/28 07:23:33;;;;;;;2.30;1.20;;;18.60;99.90;;;19.21;100.00;97433.50;5024291;28;20469;-83
2023/07/28 07:26:02;;;;;;;1.63;1.10;;;18.60;99.90;;;19.21;100.00;97429.00;5025956;28;20462;-83
2023/07/28 07:28:35;;;;;;;1.63;1.47;;;18.80;99.90;;;19.13;100.00;97432.13;5024564;28;20581;-83
2023/07/28 07:31:13;;;;;;;1.53;1.20;;;18.50;99.90;;;19.19;100.00;97430.31;5025753;28;20493;-83
2023/07/28 07:33:43;;;;;;;1.30;1.20;;;18.60;99.90;;;19.19;100.00;97425.81;5024226;28;20497;-83
2023/07/28 07:36:15;;;;;;;2.10;1.40;;;18.60;99.90;;;19.24;100.00;97425.03;5026055;28;20466;-83
2023/07/28 07:38:46;;;;;;;1.97;1.30;;;18.70;99.90;;;19.24;100.00;97439.09;5027123;28;20454;-84
2023/07/28 07:41:19;;;;;;;2.57;1.83;;;18.70;99.90;;;19.31;100.00;97446.81;5025067;28;20489;-83
2023/07/28 07:43:51;;;;;;;1.80;1.37;;;18.70;99.90;;;19.32;100.00;97446.56;5026303;28;20458;-82
2023/07/28 07:46:23;;;;;;;3.00;1.30;;;18.60;99.90;;;19.40;100.00;97451.38;5024177;28;20462;-83
2023/07/28 07:48:53;;;;;;;3.73;1.70;;;18.80;99.90;;;19.39;100.00;97441.03;5026633;28;20497;-84
2023/07/28 07:51:23;;;;;;;2.07;1.50;;;18.80;99.90;;;19.43;100.00;97466.81;5023724;28;20553;-83
2023/07/28 07:53:54;;;;;;;1.70;1.60;;;18.90;99.90;;;19.45;100.00;97464.69;5025081;28;20533;-83
2023/07/28 07:56:25;;;;;;;1.70;1.30;;;18.90;99.90;;;19.45;100.00;97463.91;5022241;28;21024;-83
2023/07/28 07:58:58;;;;;;;1.80;1.70;;;18.90;99.90;;;19.50;100.00;97469.25;5023090;28;20466;-83
2023/07/28 08:01:30;;;;;;;1.83;1.50;;;19.00;99.90;;;19.51;100.00;97468.97;5022570;28;20992;-83
2023/07/28 08:04:01;;;;;;;6.10;1.73;;;19.00;99.90;;;19.53;100.00;97472.19;5024712;28;20527;-83
2023/07/28 08:06:30;;;;;;;2.20;1.83;;;18.90;99.90;;;19.54;100.00;97475.63;5024297;28;20480;-83
2023/07/28 08:09:00;;;;;;;2.30;1.80;;;19.00;99.90;;;19.56;100.00;97463.69;5022770;28;20500;-82
2023/07/28 08:11:30;;;;;;;3.73;2.60;;;19.10;99.90;;;19.62;100.00;97474.31;5021801;28;20467;-83
2023/07/28 08:14:00;;;;;;;2.07;1.60;;;19.10;99.90;;;19.56;100.00;97469.00;5023616;28;20471;-83
2023/07/28 08:16:31;;;;;;;2.33;1.90;;;19.10;99.90;;;19.57;100.00;97461.84;5022767;28;20474;-82
2023/07/28 08:19:02;;;;;;;4.27;2.57;;;19.10;99.90;;;19.63;100.00;97460.00;5024111;28;20543;-83
2023/07/28 08:21:36;;;;;;;2.73;2.30;;;19.20;99.90;;;19.59;100.00;97476.44;5024276;28;20979;-83
2023/07/28 08:24:08;;;;;;;2.80;2.13;;;19.00;99.90;;;19.65;100.00;97473.78;5025281;28;20874;-83
2023/07/28 08:26:37;;;;;;;5.70;1.60;;;19.00;99.90;;;19.75;100.00;97473.88;5024798;28;20454;-83
2023/07/28 08:29:06;;;;;;;2.63;2.43;;;19.00;99.90;;;19.78;100.00;97474.16;5023457;28;20502;-83
2023/07/28 08:31:37;;;;;;;2.60;2.30;;;19.30;99.90;;;19.83;100.00;97473.34;5024787;28;20520;-83
2023/07/28 08:34:07;;;;;;;3.03;2.03;;;19.30;99.90;;;19.83;100.00;97476.00;5022631;28;20467;-83
2023/07/28 08:36:37;;;;;;;3.20;1.90;;;19.40;99.90;;;19.88;100.00;97482.13;5024137;28;20469;-83
2023/07/28 08:39:09;;;;;;;3.27;2.17;;;19.40;99.90;;;19.91;100.00;97478.16;5023514;28;20528;-82
2023/07/28 08:41:39;;;;;;;2.43;2.03;;;19.40;99.90;;;19.94;100.00;97481.09;5024515;28;20477;-83
2023/07/28 08:44:11;;;;;;;2.00;1.80;;;19.40;99.90;;;19.99;100.00;97485.63;5023503;28;20473;-83
2023/07/28 08:46:43;;;;;;;2.50;2.30;;;19.50;99.90;;;20.02;100.00;97485.09;5023558;28;20561;-83
2023/07/28 08:49:15;;;;;;;3.80;2.03;;;19.40;99.90;;;20.03;100.00;97486.69;5022794;28;20469;-82
2023/07/28 08:51:51;;;;;;;2.17;1.73;;;19.40;99.90;;;19.98;100.00;97494.66;5025811;28;20470;-82
2023/07/28 08:54:23;;;;;;;1.60;1.50;;;19.30;99.90;;;20.03;100.00;97486.69;5024630;28;20462;-82
2023/07/28 08:56:54;;;;;;;3.93;1.70;;;19.30;99.90;;;20.03;100.00;97484.81;5021813;28;20544;-82
2023/07/28 08:59:26;;;;;;;2.17;1.33;;;19.40;99.90;;;19.97;100.00;97483.22;5023389;28;20548;-83
2023/07/28 09:01:59;;;;;;;1.70;1.60;;;19.40;99.90;;;20.03;100.00;97484.81;5023144;28;20477;-83
2023/07/28 09:04:30;;;;;;;4.00;1.90;;;19.40;99.90;;;20.03;100.00;97481.38;5025526;28;20545;-84
2023/07/28 09:07:05;;;;;;;2.37;1.80;;;19.40;99.90;;;20.06;100.00;97480.88;5029762;28;20470;-84
2023/07/28 09:09:38;;;;;;;2.33;2.07;;;19.40;99.90;;;20.08;100.00;97492.03;5026991;28;20482;-83
2023/07/28 09:12:10;;;;;;;3.83;2.23;;;19.50;99.90;;;20.15;100.00;97484.59;5028185;28;20453;-83
2023/07/28 09:14:40;;;;;;;2.20;1.57;;;19.60;99.90;;;20.18;100.00;97488.59;5027126;28;20482;-82
2023/07/28 09:17:13;;;;;;;2.20;1.83;;;19.60;99.90;;;20.21;100.00;97486.19;5028954;28;20509;-82
2023/07/28 09:19:54;;;;;;;6.63;1.90;;;19.60;99.90;;;20.30;100.00;97481.22;5029392;28;20466;-83
2023/07/28 09:22:24;;;;;;;2.60;2.00;;;19.70;99.90;;;20.29;100.00;97482.28;5027360;28;20471;-83
2023/07/28 09:24:54;;;;;;;5.23;2.03;;;19.60;99.90;;;20.25;100.00;97479.31;5026853;28;20476;-82
2023/07/28 09:27:25;;;;;;;4.20;2.07;;;19.70;99.90;;;20.21;100.00;97486.19;5025275;28;20470;-83
2023/07/28 09:29:56;;;;;;;3.13;2.13;;;19.50;99.90;;;20.25;100.00;97484.63;5028290;28;20473;-83
2023/07/28 09:32:33;;;;;;;1.97;1.80;;;19.60;99.90;;;20.27;100.00;97497.66;5026933;28;21306;-83
2023/07/28 09:35:12;;;;;;;2.03;1.70;;;19.80;99.90;;;20.28;100.00;97502.72;5027947;28;20465;-82
2023/07/28 09:37:43;;;;;;;1.80;1.57;;;19.80;99.90;;;20.33;100.00;97510.72;5025992;28;20464;-83
2023/07/28 09:40:17;;;;;;;1.37;1.27;;;19.80;99.90;;;20.25;100.00;97500.56;5028097;28;20822;-83
2023/07/28 09:42:50;;;;;;;3.33;2.10;;;19.70;99.90;;;20.30;100.00;97503.28;5027188;28;20536;-83
2023/07/28 09:45:24;;;;;;;2.53;1.80;;;19.80;99.90;;;20.31;100.00;97504.03;5027858;28;20553;-83
2023/07/28 09:48:11;;;;;;;3.70;2.13;;;19.80;99.90;;;20.32;100.00;97501.13;5025298;28;20463;-83
2023/07/28 09:50:43;;;;;;;2.13;1.47;;;19.70;99.90;;;20.28;100.00;97510.69;5026037;28;20525;-83
2023/07/28 09:53:15;;;;;;;2.00;1.80;;;19.70;99.90;;;20.32;100.00;97506.44;5026528;28;20461;-83
2023/07/28 09:55:47;;;;;;;2.53;1.60;;;19.70;99.90;;;20.34;100.00;97498.22;5026863;28;20458;-83
2023/07/28 09:58:22;;;;;;;2.50;1.53;;;19.70;99.90;;;20.44;100.00;97499.03;5025869;28;20988;-83
2023/07/28 10:00:52;;;;;;;1.87;1.40;;;19.80;99.90;;;20.54;100.00;97493.75;5026757;28;20498;-82
2023/07/28 10:03:26;;;;;;;2.37;1.17;;;20.00;99.90;;;20.62;100.00;97495.06;5024491;28;20512;-83
2023/07/28 10:05:56;;;;;;;1.50;1.40;;;20.00;99.90;;;20.69;100.00;97498.25;5025830;28;20457;-83
2023/07/28 10:08:28;;;;;;;1.63;1.30;;;20.10;99.90;;;20.77;100.00;97496.94;5024445;28;21232;-83
2023/07/28 10:10:59;;;;;;;1.60;1.40;;;20.20;99.90;;;20.86;100.00;97495.34;5024294;28;20498;-83
2023/07/28 10:13:40;;;;;;;1.60;1.43;;;20.30;99.90;;;20.94;100.00;97497.47;5024937;28;20489;-83
2023/07/28 10:16:10;;;;;;;1.67;1.57;;;20.40;99.90;;;20.98;100.00;97493.22;5025348;28;20477;-82
2023/07/28 10:18:40;;;;;;;1.50;1.30;;;20.40;99.90;;;21.02;100.00;97504.91;5027171;28;20515;-82
2023/07/28 10:21:16;;;;;;;1.30;1.20;;;20.40;99.90;;;21.05;100.00;97499.88;5025478;28;20953;-83
2023/07/28 10:23:54;;;;;;;1.60;1.50;;;20.40;99.90;;;21.07;100.00;97508.34;5024834;28;20454;-84
2023/07/28 10:26:36;;;;;;;2.00;1.67;;;20.40;99.90;;;21.14;100.00;97505.47;5026416;28;20462;-83
2023/07/28 10:29:38;;;;;;;1.70;1.60;;;20.50;99.90;;;21.16;100.00;97513.19;5023561;28;20588;-83
2023/07/28 10:32:10;;;;;;;1.83;1.50;;;20.50;99.90;;;21.13;100.00;97519.84;5025266;28;20485;-83